NCAR-RAP Real-Time Weather Data

Output produced by METARs form (25 March 2019  01:07 UTC)
found at http://weather.rap.ucar.edu/surface/
 
Conditions at: KIND observed 25 March 2019  00:54 UTC
Temperature: 7.2°C (45°F)
Dewpoint: 6.7°C (44°F) [RH = 97%]
Pressure (altimeter): 30.04 inches Hg (1017.4 mb)
[Sea-level pressure: 1017.5 mb]
Winds: calm
Visibility: 4 miles (6 km)
Ceiling: 600 feet AGL
Clouds: overcast cloud deck at 600 feet AGL
Present Weather: BR  (mist)
KIND 250054Z 00000KT 4SM BR OVC006 07/07 A3004 RMK AO2 SLP175 T00720067